createdAt,value
2024-04-30T00:00:31.380Z,14.51
2024-04-30T00:01:31.331Z,14.52
2024-04-30T00:02:31.311Z,14.36
2024-04-30T00:03:31.349Z,14.49
2024-04-30T00:04:31.504Z,14.58
2024-04-30T00:05:31.305Z,14.49
2024-04-30T00:06:31.284Z,14.51
2024-04-30T00:07:31.363Z,14.56
2024-04-30T00:08:31.270Z,14.51
2024-04-30T00:09:31.249Z,14.45
2024-04-30T00:10:31.339Z,14.48
2024-04-30T00:11:31.278Z,14.44
2024-04-30T00:12:31.226Z,14.44
2024-04-30T00:13:31.294Z,14.45
2024-04-30T00:14:31.215Z,14.55
2024-04-30T00:15:31.206Z,14.56
2024-04-30T00:16:31.328Z,14.58
2024-04-30T00:17:31.218Z,14.61
2024-04-30T00:18:31.224Z,14.52
2024-04-30T00:19:31.268Z,14.41
2024-04-30T00:20:31.209Z,14.36
2024-04-30T00:21:31.185Z,14.27
2024-04-30T00:22:31.228Z,14.23
2024-04-30T00:23:31.142Z,14.22
2024-04-30T00:24:31.407Z,14.18
2024-04-30T00:25:31.273Z,14.26
2024-04-30T00:26:31.192Z,14.22
2024-04-30T00:27:31.121Z,14.19
2024-04-30T00:28:31.152Z,14.28
2024-04-30T00:29:31.216Z,14.26
2024-04-30T00:30:31.093Z,14.31
2024-04-30T00:31:31.166Z,14.40
2024-04-30T00:32:31.135Z,14.36
2024-04-30T00:33:31.080Z,14.48
2024-04-30T00:34:31.168Z,14.30
2024-04-30T00:35:31.098Z,14.34
2024-04-30T00:36:31.072Z,14.19
2024-04-30T00:37:31.080Z,14.18
2024-04-30T00:38:31.039Z,14.19
2024-04-30T00:39:31.035Z,14.22
2024-04-30T00:40:31.078Z,14.23
2024-04-30T00:41:31.042Z,14.15
2024-04-30T00:42:31.065Z,14.09
2024-04-30T00:43:31.070Z,14.04
2024-04-30T00:44:31.033Z,13.90
2024-04-30T00:45:31.015Z,13.91
2024-04-30T00:46:31.145Z,13.76
2024-04-30T00:47:31.010Z,13.94
2024-04-30T00:48:31.098Z,13.91
2024-04-30T00:49:31.082Z,14.04
2024-04-30T00:50:31.045Z,13.91
2024-04-30T00:51:31.235Z,13.97
2024-04-30T00:52:31.206Z,14.01
2024-04-30T00:53:31.328Z,13.93
2024-04-30T00:54:31.166Z,14.00
2024-04-30T00:55:31.003Z,13.88
2024-04-30T00:56:30.912Z,13.98
2024-04-30T00:57:30.909Z,13.97
2024-04-30T00:58:30.979Z,13.93
2024-04-30T00:59:30.880Z,13.86
2024-04-30T01:00:30.907Z,13.85
2024-04-30T01:01:31.030Z,13.82
2024-04-30T01:02:30.924Z,13.88
2024-04-30T01:03:30.961Z,13.88
2024-04-30T01:04:30.930Z,13.85
2024-04-30T01:05:30.846Z,13.85
2024-04-30T01:06:30.837Z,13.85
2024-04-30T01:07:31.113Z,13.83
2024-04-30T01:08:30.877Z,13.78
2024-04-30T01:09:30.823Z,13.76
2024-04-30T01:10:30.874Z,13.80
2024-04-30T01:11:30.858Z,13.75
2024-04-30T01:12:30.798Z,13.91
2024-04-30T01:13:31.646Z,13.83
2024-04-30T01:14:30.842Z,13.68
2024-04-30T01:15:30.776Z,13.73
2024-04-30T01:16:30.834Z,13.80
2024-04-30T01:17:30.888Z,13.82
2024-04-30T01:18:30.770Z,13.79
2024-04-30T01:19:30.847Z,13.71
2024-04-30T01:20:30.737Z,13.60
2024-04-30T01:21:30.739Z,13.53
2024-04-30T01:22:30.854Z,13.45
2024-04-30T01:23:30.805Z,13.47
2024-04-30T01:24:30.753Z,13.42
2024-04-30T01:25:30.839Z,13.46
2024-04-30T01:26:30.739Z,13.40
2024-04-30T01:27:30.723Z,13.38
2024-04-30T01:28:30.823Z,13.47
2024-04-30T01:29:30.690Z,13.53
2024-04-30T01:30:30.732Z,13.29
2024-04-30T01:31:30.731Z,13.16
2024-04-30T01:32:30.726Z,13.21
2024-04-30T01:33:30.704Z,13.23
2024-04-30T01:34:30.774Z,13.21
2024-04-30T01:35:30.681Z,13.20
2024-04-30T01:36:30.638Z,13.17
2024-04-30T01:37:30.706Z,13.06
2024-04-30T01:38:30.719Z,13.32
2024-04-30T01:39:30.612Z,13.23
2024-04-30T01:40:30.664Z,13.21
2024-04-30T01:41:30.680Z,13.20
2024-04-30T01:42:30.638Z,13.30
2024-04-30T01:43:31.048Z,13.24
2024-04-30T01:44:30.582Z,13.21
2024-04-30T01:45:30.641Z,13.16
2024-04-30T01:46:30.660Z,13.21
2024-04-30T01:47:30.670Z,13.09
2024-04-30T01:48:30.740Z,13.19
2024-04-30T01:49:30.704Z,12.99
2024-04-30T01:50:30.608Z,12.87
2024-04-30T01:51:30.531Z,12.87
2024-04-30T01:52:30.633Z,12.98
2024-04-30T01:53:30.579Z,12.84
2024-04-30T01:54:30.540Z,13.09
2024-04-30T01:55:30.656Z,12.86
2024-04-30T01:56:30.515Z,13.02
2024-04-30T01:57:30.537Z,12.91
2024-04-30T01:58:30.775Z,13.05
2024-04-30T01:59:30.481Z,13.09
2024-04-30T02:00:30.527Z,13.13
2024-04-30T02:01:30.470Z,13.14
2024-04-30T02:02:30.535Z,13.04
2024-04-30T02:03:30.602Z,13.06
2024-04-30T02:04:38.560Z,13.09
2024-04-30T02:05:31.662Z,13.16
2024-04-30T02:06:30.437Z,13.06
2024-04-30T02:07:30.541Z,13.11
2024-04-30T02:08:30.474Z,13.13
2024-04-30T02:09:31.393Z,13.11
2024-04-30T02:10:30.461Z,13.09
2024-04-30T02:11:30.455Z,13.14
2024-04-30T02:12:30.466Z,13.06
2024-04-30T02:13:30.466Z,13.11
2024-04-30T02:14:30.466Z,13.17
2024-04-30T02:15:30.488Z,13.16
2024-04-30T02:16:30.368Z,13.11
2024-04-30T02:17:30.571Z,13.09
2024-04-30T02:18:30.465Z,13.11
2024-04-30T02:19:30.578Z,13.06
2024-04-30T02:20:30.332Z,13.13
2024-04-30T02:21:30.427Z,13.04
2024-04-30T02:22:30.515Z,12.98
2024-04-30T02:23:30.378Z,12.62
2024-04-30T02:24:30.387Z,12.65
2024-04-30T02:25:30.364Z,12.79
2024-04-30T02:26:30.408Z,12.76
2024-04-30T02:27:30.409Z,12.68
2024-04-30T02:28:30.541Z,12.65
2024-04-30T02:29:30.371Z,12.71
2024-04-30T02:30:30.340Z,12.54
2024-04-30T02:31:30.360Z,12.38
2024-04-30T02:32:30.452Z,12.54
2024-04-30T02:33:30.303Z,12.47
2024-04-30T02:34:30.325Z,12.48
2024-04-30T02:35:30.292Z,12.54
2024-04-30T02:36:30.342Z,12.62
2024-04-30T02:37:30.248Z,12.61
2024-04-30T02:38:30.250Z,12.55
2024-04-30T02:39:30.236Z,12.66
2024-04-30T02:40:30.228Z,12.65
2024-04-30T02:41:30.211Z,12.68
2024-04-30T02:42:30.178Z,12.58
2024-04-30T02:43:30.741Z,12.58
2024-04-30T02:44:30.249Z,12.59
2024-04-30T02:45:30.183Z,12.68
2024-04-30T02:46:30.304Z,12.71
2024-04-30T02:47:30.286Z,12.63
2024-04-30T02:48:30.226Z,12.69
2024-04-30T02:49:30.359Z,12.65
2024-04-30T02:50:30.160Z,12.63
2024-04-30T02:51:30.115Z,12.68
2024-04-30T02:52:30.235Z,12.71
2024-04-30T02:53:30.121Z,12.65
2024-04-30T02:54:30.089Z,12.68
2024-04-30T02:55:30.222Z,12.80
2024-04-30T02:56:30.103Z,12.83
2024-04-30T02:57:30.079Z,12.90
2024-04-30T02:58:30.165Z,12.72
2024-04-30T02:59:30.051Z,12.72
2024-04-30T03:00:30.109Z,12.71
2024-04-30T03:01:30.069Z,12.76
2024-04-30T03:02:30.047Z,12.76
2024-04-30T03:03:30.140Z,12.77
2024-04-30T03:04:30.421Z,12.81
2024-04-30T03:05:30.024Z,12.90
2024-04-30T03:06:30.094Z,12.95
2024-04-30T03:07:30.051Z,13.01
2024-04-30T03:08:29.996Z,12.88
2024-04-30T03:09:30.001Z,12.86
2024-04-30T03:10:30.022Z,12.93
2024-04-30T03:11:30.027Z,13.02
2024-04-30T03:12:29.996Z,12.84
2024-04-30T03:13:30.006Z,12.81
2024-04-30T03:14:29.955Z,12.81
2024-04-30T03:15:29.968Z,12.73
2024-04-30T03:16:30.009Z,12.72
2024-04-30T03:17:30.285Z,12.81
2024-04-30T03:18:29.942Z,12.69
2024-04-30T03:19:30.047Z,12.79
2024-04-30T03:20:29.941Z,12.73
2024-04-30T03:21:29.903Z,12.93
2024-04-30T03:22:29.963Z,12.87
2024-04-30T03:23:29.950Z,12.95
2024-04-30T03:24:29.887Z,12.87
2024-04-30T03:25:29.902Z,12.91
2024-04-30T03:26:29.901Z,12.84
2024-04-30T03:27:30.944Z,12.83
2024-04-30T03:28:29.924Z,12.81
2024-04-30T03:29:29.856Z,12.80
2024-04-30T03:30:29.851Z,12.84
2024-04-30T03:31:29.988Z,12.86
2024-04-30T03:32:29.937Z,12.99
2024-04-30T03:33:29.995Z,12.77
2024-04-30T03:34:29.903Z,12.68
2024-04-30T03:35:29.820Z,12.40
2024-04-30T03:36:29.795Z,12.30
2024-04-30T03:37:29.839Z,12.28
2024-04-30T03:38:29.797Z,12.36
2024-04-30T03:39:29.800Z,12.38
2024-04-30T03:40:29.909Z,12.38
2024-04-30T03:41:29.779Z,12.53
2024-04-30T03:42:29.758Z,12.51
2024-04-30T03:43:29.775Z,12.48
2024-04-30T03:44:29.766Z,12.53
2024-04-30T03:45:29.735Z,12.54
2024-04-30T03:46:29.796Z,12.53
2024-04-30T03:47:29.807Z,12.61
2024-04-30T03:48:29.754Z,12.63
2024-04-30T03:49:29.766Z,12.73
2024-04-30T03:50:29.699Z,12.83
2024-04-30T03:51:29.692Z,12.80
2024-04-30T03:52:29.749Z,12.79
2024-04-30T03:53:29.721Z,12.77
2024-04-30T03:54:29.670Z,12.50
2024-04-30T03:55:29.723Z,12.43
2024-04-30T03:56:29.678Z,12.30
2024-04-30T03:57:29.656Z,12.26
2024-04-30T03:58:29.723Z,12.14
2024-04-30T03:59:29.659Z,12.35
2024-04-30T04:00:29.695Z,12.26
2024-04-30T04:01:29.644Z,12.32
2024-04-30T04:02:29.644Z,12.35
2024-04-30T04:03:29.691Z,12.33
2024-04-30T04:04:29.758Z,12.40
2024-04-30T04:05:29.593Z,12.43
2024-04-30T04:06:29.591Z,12.41
2024-04-30T04:07:29.635Z,12.46
2024-04-30T04:08:29.597Z,12.46
2024-04-30T04:09:29.582Z,12.38
2024-04-30T04:10:29.643Z,12.41
2024-04-30T04:11:29.621Z,12.21
2024-04-30T04:12:29.563Z,12.28
2024-04-30T04:13:29.617Z,12.26
2024-04-30T04:14:29.546Z,12.33
2024-04-30T04:15:29.553Z,12.40
2024-04-30T04:16:29.604Z,12.30
2024-04-30T04:17:29.630Z,12.28
2024-04-30T04:18:29.597Z,12.41
2024-04-30T04:19:29.547Z,12.36
2024-04-30T04:20:29.516Z,12.33
2024-04-30T04:21:29.535Z,12.32
2024-04-30T04:22:29.532Z,12.47
2024-04-30T04:23:29.537Z,12.47
2024-04-30T04:24:29.480Z,12.50
2024-04-30T04:25:29.597Z,12.55
2024-04-30T04:26:29.475Z,12.55
2024-04-30T04:27:29.448Z,12.69
2024-04-30T04:28:29.874Z,12.65
2024-04-30T04:29:29.455Z,12.77
2024-04-30T04:30:29.461Z,12.76
2024-04-30T04:31:29.455Z,12.81
2024-04-30T04:32:29.496Z,12.80
2024-04-30T04:33:29.411Z,12.86
2024-04-30T04:34:29.576Z,12.81
2024-04-30T04:35:29.461Z,12.90
2024-04-30T04:36:29.421Z,12.81
2024-04-30T04:37:29.473Z,12.90
2024-04-30T04:38:29.414Z,12.84
2024-04-30T04:39:29.383Z,12.86
2024-04-30T04:40:29.440Z,12.83
2024-04-30T04:41:29.366Z,12.73
2024-04-30T04:42:29.379Z,12.65
2024-04-30T04:43:29.353Z,12.71
2024-04-30T04:44:29.353Z,12.63
2024-04-30T04:45:29.355Z,12.73
2024-04-30T04:46:29.395Z,12.79
2024-04-30T04:47:29.385Z,12.59
2024-04-30T04:48:29.519Z,12.72
2024-04-30T04:49:29.326Z,12.86
2024-04-30T04:50:29.294Z,12.96
2024-04-30T04:51:29.295Z,12.83
2024-04-30T04:52:29.393Z,12.91
2024-04-30T04:53:29.304Z,12.96
2024-04-30T04:54:29.264Z,12.96
2024-04-30T04:55:29.301Z,12.87
2024-04-30T04:56:29.266Z,12.90
2024-04-30T04:57:29.275Z,12.87
2024-04-30T04:58:29.347Z,12.91
2024-04-30T04:59:29.270Z,12.96
2024-04-30T05:00:29.267Z,13.06
2024-04-30T05:01:29.287Z,13.01
2024-04-30T05:02:29.269Z,13.08
2024-04-30T05:03:29.251Z,13.13
2024-04-30T05:04:29.296Z,13.06
2024-04-30T05:05:29.187Z,13.13
2024-04-30T05:06:29.220Z,13.17
2024-04-30T05:07:29.231Z,13.11
2024-04-30T05:08:29.258Z,13.01
2024-04-30T05:09:29.153Z,13.01
2024-04-30T05:10:29.313Z,13.01
2024-04-30T05:11:29.206Z,12.96
2024-04-30T05:12:29.131Z,13.06
2024-04-30T05:13:29.186Z,13.02
2024-04-30T05:14:36.405Z,12.99
2024-04-30T05:15:29.115Z,13.13
2024-04-30T05:16:29.183Z,13.13
2024-04-30T05:17:29.284Z,13.11
2024-04-30T05:18:29.128Z,13.24
2024-04-30T05:19:29.143Z,13.35
2024-04-30T05:20:29.085Z,13.55
2024-04-30T05:21:29.099Z,13.80
2024-04-30T05:22:29.112Z,13.85
2024-04-30T05:23:29.104Z,13.94
2024-04-30T05:24:29.079Z,13.88
2024-04-30T05:25:29.329Z,14.05
2024-04-30T05:26:29.050Z,14.12
2024-04-30T05:27:29.036Z,14.13
2024-04-30T05:28:29.217Z,14.26
2024-04-30T05:29:29.054Z,14.27
2024-04-30T05:30:29.015Z,14.36
2024-04-30T05:31:29.033Z,14.55
2024-04-30T05:32:29.114Z,14.78
2024-04-30T05:33:29.586Z,14.77
2024-04-30T05:34:29.141Z,14.82
2024-04-30T05:35:28.988Z,14.74
2024-04-30T05:36:28.972Z,14.71
2024-04-30T05:37:29.009Z,14.67
2024-04-30T05:38:28.990Z,14.70
2024-04-30T05:39:28.994Z,14.71
2024-04-30T05:40:28.997Z,14.70
2024-04-30T05:41:29.023Z,14.53
2024-04-30T05:42:28.929Z,14.64
2024-04-30T05:43:28.984Z,14.69
2024-04-30T05:44:28.924Z,14.59
2024-04-30T05:45:28.908Z,14.77
2024-04-30T05:46:29.012Z,14.70
2024-04-30T05:47:28.901Z,14.67
2024-04-30T05:48:28.917Z,14.71
2024-04-30T05:49:28.907Z,14.67
2024-04-30T05:50:28.892Z,14.66
2024-04-30T05:51:28.868Z,14.79
2024-04-30T05:52:28.911Z,14.78
2024-04-30T05:53:28.880Z,14.90
2024-04-30T05:54:28.856Z,14.85
2024-04-30T05:55:28.862Z,14.95
2024-04-30T05:56:28.851Z,14.82
2024-04-30T05:57:28.852Z,14.83
2024-04-30T05:58:28.891Z,14.95
2024-04-30T05:59:28.824Z,14.87
2024-04-30T06:00:29.277Z,15.10
2024-04-30T06:01:28.821Z,14.95
2024-04-30T06:02:28.784Z,14.87
2024-04-30T06:03:28.850Z,14.69
2024-04-30T06:04:28.860Z,14.55
2024-04-30T06:05:29.680Z,14.56
2024-04-30T06:06:28.762Z,14.66
2024-04-30T06:07:28.846Z,14.85
2024-04-30T06:08:28.751Z,14.87
2024-04-30T06:09:28.774Z,14.79
2024-04-30T06:10:28.793Z,14.77
2024-04-30T06:11:28.797Z,14.69
2024-04-30T06:12:28.749Z,14.66
2024-04-30T06:13:28.741Z,14.78
2024-04-30T06:14:28.728Z,14.79
2024-04-30T06:15:28.695Z,14.89
2024-04-30T06:16:28.760Z,14.96
2024-04-30T06:17:28.728Z,15.23
2024-04-30T06:18:28.724Z,15.41
2024-04-30T06:19:28.730Z,15.58
2024-04-30T06:20:28.660Z,15.70
2024-04-30T06:21:31.774Z,15.72
2024-04-30T06:22:29.690Z,15.83
2024-04-30T06:23:28.654Z,15.85
2024-04-30T06:24:28.656Z,16.00
2024-04-30T06:25:28.654Z,16.39
2024-04-30T06:26:28.634Z,16.55
2024-04-30T06:27:28.744Z,16.43
2024-04-30T06:28:30.282Z,16.46
2024-04-30T06:29:28.731Z,16.67
2024-04-30T06:30:28.623Z,17.02
2024-04-30T06:31:28.666Z,17.07
2024-04-30T06:32:28.594Z,17.19
2024-04-30T06:33:28.733Z,17.07
2024-04-30T06:34:28.625Z,16.98
2024-04-30T06:35:28.592Z,16.84
2024-04-30T06:36:28.558Z,16.79
2024-04-30T06:37:28.596Z,16.64
2024-04-30T06:38:28.539Z,16.62
2024-04-30T06:39:28.580Z,16.46
2024-04-30T06:40:28.548Z,16.55
2024-04-30T06:41:28.526Z,16.47
2024-04-30T06:42:28.540Z,16.52
2024-04-30T06:43:28.541Z,16.79
2024-04-30T06:44:28.567Z,16.91
2024-04-30T06:45:28.495Z,16.99
2024-04-30T06:46:28.551Z,17.01
2024-04-30T06:47:28.520Z,17.49
2024-04-30T06:48:28.530Z,17.65
2024-04-30T06:49:28.535Z,17.71
2024-04-30T06:50:28.536Z,17.76
2024-04-30T06:51:28.465Z,17.62
2024-04-30T06:52:28.510Z,17.72
2024-04-30T06:53:28.442Z,17.79
2024-04-30T06:54:28.473Z,18.01
2024-04-30T06:55:28.501Z,18.12
2024-04-30T06:56:28.418Z,18.26
2024-04-30T06:57:28.429Z,18.43
2024-04-30T06:58:28.452Z,18.56
2024-04-30T06:59:28.417Z,18.76
2024-04-30T07:00:28.412Z,18.71
2024-04-30T07:01:28.450Z,18.88
2024-04-30T07:02:28.387Z,19.16
2024-04-30T07:03:28.372Z,19.35
2024-04-30T07:04:28.433Z,19.79
2024-04-30T07:05:28.457Z,19.99
2024-04-30T07:06:28.420Z,20.00
2024-04-30T07:07:28.369Z,20.17
2024-04-30T07:08:28.364Z,20.34
2024-04-30T07:09:28.321Z,20.55
2024-04-30T07:10:28.357Z,20.60
2024-04-30T07:11:28.354Z,20.86
2024-04-30T07:12:28.337Z,20.86
2024-04-30T07:13:28.329Z,20.97
2024-04-30T07:14:28.295Z,21.34
2024-04-30T07:15:28.282Z,21.59
2024-04-30T07:16:28.349Z,21.62
2024-04-30T07:17:28.523Z,21.69
2024-04-30T07:18:28.449Z,22.03
2024-04-30T07:19:28.284Z,22.07
2024-04-30T07:20:28.247Z,22.16
2024-04-30T07:21:28.241Z,22.40
2024-04-30T07:22:28.279Z,22.49
2024-04-30T07:23:28.223Z,22.44
2024-04-30T07:24:28.220Z,22.53
2024-04-30T07:25:29.180Z,22.58
2024-04-30T07:26:28.207Z,22.58
2024-04-30T07:27:28.225Z,22.68
2024-04-30T07:28:28.239Z,22.77
2024-04-30T07:29:28.212Z,22.74
2024-04-30T07:30:28.208Z,22.91
2024-04-30T07:31:28.275Z,22.92
2024-04-30T07:32:28.255Z,23.23
2024-04-30T07:33:28.316Z,23.25
2024-04-30T07:34:28.409Z,23.29
2024-04-30T07:35:28.144Z,23.44
2024-04-30T07:36:28.136Z,23.55
2024-04-30T07:37:28.171Z,23.69
2024-04-30T07:38:28.126Z,23.64
2024-04-30T07:39:28.114Z,23.70
2024-04-30T07:40:28.133Z,23.91
2024-04-30T07:41:28.110Z,23.92
2024-04-30T07:42:28.126Z,24.06
2024-04-30T07:43:28.173Z,24.01
2024-04-30T07:44:28.101Z,23.92
2024-04-30T07:45:28.112Z,24.10
2024-04-30T07:46:28.208Z,24.36
2024-04-30T07:47:28.157Z,24.44
2024-04-30T07:48:28.357Z,24.53
2024-04-30T07:49:28.073Z,24.59
2024-04-30T07:50:28.060Z,24.52
2024-04-30T07:51:28.037Z,24.56
2024-04-30T07:52:28.073Z,24.55
2024-04-30T07:53:28.111Z,24.55
2024-04-30T07:54:28.020Z,24.60
2024-04-30T07:55:28.063Z,24.74
2024-04-30T07:56:28.015Z,24.86
2024-04-30T07:57:28.002Z,25.09
2024-04-30T07:58:28.029Z,25.18
2024-04-30T07:59:27.987Z,25.22
2024-04-30T08:00:28.094Z,25.36
2024-04-30T08:01:27.999Z,25.40
2024-04-30T08:02:28.012Z,25.38
2024-04-30T08:03:28.018Z,25.52
2024-04-30T08:04:28.035Z,25.61
2024-04-30T08:05:28.651Z,25.66
2024-04-30T08:06:27.946Z,25.67
2024-04-30T08:07:27.995Z,25.56
2024-04-30T08:08:27.955Z,25.70
2024-04-30T08:09:27.921Z,25.64
2024-04-30T08:10:27.979Z,25.77
2024-04-30T08:11:27.930Z,26.01
2024-04-30T08:12:27.905Z,26.10
2024-04-30T08:13:27.915Z,25.96
2024-04-30T08:14:27.915Z,25.86
2024-04-30T08:15:27.925Z,25.93
2024-04-30T08:16:27.964Z,25.93
2024-04-30T08:17:27.978Z,26.07
2024-04-30T08:18:27.890Z,26.15
2024-04-30T08:19:27.936Z,26.28
2024-04-30T08:20:27.935Z,26.43
2024-04-30T08:21:27.886Z,26.51
2024-04-30T08:22:27.878Z,26.56
2024-04-30T08:23:27.852Z,26.61
2024-04-30T08:24:28.137Z,26.75
2024-04-30T08:25:27.852Z,26.71
2024-04-30T08:26:27.811Z,26.90
2024-04-30T08:27:27.819Z,26.90
2024-04-30T08:28:27.936Z,26.94
2024-04-30T08:29:27.848Z,26.89
2024-04-30T08:30:27.783Z,26.98
2024-04-30T08:31:27.799Z,27.05
2024-04-30T08:32:27.916Z,27.15
2024-04-30T08:33:27.874Z,27.15
2024-04-30T08:34:27.844Z,27.15
2024-04-30T08:35:27.761Z,27.22
2024-04-30T08:36:30.443Z,27.13
2024-04-30T08:37:29.262Z,27.13
2024-04-30T08:38:27.751Z,27.20
2024-04-30T08:39:27.776Z,27.13
2024-04-30T08:40:27.736Z,27.37
2024-04-30T08:41:27.713Z,27.49
2024-04-30T08:42:27.702Z,27.44
2024-04-30T08:43:27.735Z,27.50
2024-04-30T08:44:27.747Z,27.38
2024-04-30T08:45:27.680Z,27.41
2024-04-30T08:46:27.734Z,27.38
2024-04-30T08:47:27.838Z,27.44
2024-04-30T08:48:28.579Z,27.40
2024-04-30T08:49:33.946Z,27.53
2024-04-30T08:50:28.688Z,27.57
2024-04-30T08:51:27.632Z,27.66
2024-04-30T08:52:27.665Z,27.85
2024-04-30T08:53:27.626Z,27.85
2024-04-30T08:54:27.638Z,27.90
2024-04-30T08:55:27.643Z,27.90
2024-04-30T08:56:27.595Z,28.03
2024-04-30T08:57:27.614Z,28.13
2024-04-30T08:58:27.609Z,28.40
2024-04-30T08:59:27.597Z,28.42
2024-04-30T09:00:27.581Z,28.56
2024-04-30T09:01:27.611Z,28.72
2024-04-30T09:02:27.572Z,28.84
2024-04-30T09:03:27.661Z,28.98
2024-04-30T09:04:28.295Z,28.93
2024-04-30T09:05:27.539Z,29.10
2024-04-30T09:06:27.524Z,29.27
2024-04-30T09:07:27.550Z,29.28
2024-04-30T09:08:27.711Z,29.25
2024-04-30T09:09:27.502Z,29.25
2024-04-30T09:10:27.544Z,29.33
2024-04-30T09:11:27.581Z,29.33
2024-04-30T09:12:27.738Z,29.31
2024-04-30T09:13:27.543Z,29.50
2024-04-30T09:14:27.495Z,29.34
2024-04-30T09:15:27.477Z,29.39
2024-04-30T09:16:27.645Z,29.41
2024-04-30T09:17:27.503Z,29.47
2024-04-30T09:18:27.466Z,29.56
2024-04-30T09:19:27.536Z,29.59
2024-04-30T09:20:27.419Z,29.62
2024-04-30T09:21:27.428Z,29.83
2024-04-30T09:22:27.530Z,29.87
2024-04-30T09:23:27.413Z,29.98
2024-04-30T09:24:27.660Z,29.84
2024-04-30T09:25:27.432Z,30.03
2024-04-30T09:26:27.462Z,30.10
2024-04-30T09:27:27.409Z,30.18
2024-04-30T09:28:27.455Z,30.32
2024-04-30T09:29:27.436Z,30.29
2024-04-30T09:30:27.679Z,30.33
2024-04-30T09:31:27.365Z,30.53
2024-04-30T09:32:27.420Z,30.70
2024-04-30T09:33:27.402Z,30.90
2024-04-30T09:34:27.337Z,30.96
2024-04-30T09:35:27.300Z,30.99
2024-04-30T09:36:27.326Z,31.02
2024-04-30T09:37:27.344Z,30.80
2024-04-30T09:38:27.317Z,30.78
2024-04-30T09:39:27.291Z,30.90
2024-04-30T09:40:27.327Z,30.90
2024-04-30T09:41:27.262Z,30.75
2024-04-30T09:42:27.426Z,30.77
2024-04-30T09:43:27.292Z,30.89
2024-04-30T09:44:27.240Z,30.82
2024-04-30T09:45:27.236Z,30.73
2024-04-30T09:46:27.308Z,30.51
2024-04-30T09:47:27.311Z,30.53
2024-04-30T09:48:27.250Z,30.60
2024-04-30T09:49:27.284Z,30.68
2024-04-30T09:50:27.206Z,30.73
2024-04-30T09:51:27.204Z,31.01
2024-04-30T09:52:27.222Z,31.05
2024-04-30T09:53:27.309Z,31.12
2024-04-30T09:54:28.483Z,31.33
2024-04-30T09:55:27.338Z,31.46
2024-04-30T09:56:27.182Z,31.68
2024-04-30T09:57:27.172Z,31.79
2024-04-30T09:58:27.209Z,31.87
2024-04-30T09:59:27.155Z,31.91
2024-04-30T10:00:28.874Z,31.99
2024-04-30T10:01:27.215Z,32.02
2024-04-30T10:02:27.125Z,31.91
2024-04-30T10:03:27.145Z,32.02
2024-04-30T10:04:27.166Z,32.16
2024-04-30T10:05:27.180Z,32.21
2024-04-30T10:06:27.103Z,32.27
2024-04-30T10:07:27.150Z,32.27
2024-04-30T10:08:27.128Z,32.33
2024-04-30T10:09:27.092Z,32.36
2024-04-30T10:10:27.182Z,32.48
2024-04-30T10:11:27.084Z,32.63
2024-04-30T10:12:29.454Z,32.77
2024-04-30T10:13:27.138Z,32.94
2024-04-30T10:14:27.074Z,33.03
2024-04-30T10:15:27.065Z,33.06
2024-04-30T10:16:27.092Z,33.24
2024-04-30T10:17:27.164Z,33.27
2024-04-30T10:18:27.038Z,33.39
2024-04-30T10:19:27.106Z,33.52
2024-04-30T10:20:27.030Z,33.62
2024-04-30T10:21:27.030Z,33.60
2024-04-30T10:22:27.076Z,33.63
2024-04-30T10:23:26.996Z,33.82
2024-04-30T10:24:27.020Z,33.88
2024-04-30T10:25:27.023Z,33.93
2024-04-30T10:26:27.001Z,33.89
2024-04-30T10:27:26.979Z,33.89
2024-04-30T10:28:27.013Z,34.00
2024-04-30T10:29:26.977Z,34.04
2024-04-30T10:30:26.956Z,34.13
2024-04-30T10:31:26.982Z,33.95
2024-04-30T10:32:26.967Z,34.15
2024-04-30T10:33:26.951Z,34.25
2024-04-30T10:34:27.055Z,34.38
2024-04-30T10:35:26.967Z,34.57
2024-04-30T10:36:26.906Z,34.76
2024-04-30T10:37:26.924Z,34.91
2024-04-30T10:38:27.053Z,34.97
2024-04-30T10:39:27.483Z,35.02
2024-04-30T10:40:26.871Z,35.07
2024-04-30T10:41:26.877Z,35.19
2024-04-30T10:42:26.868Z,35.66
2024-04-30T10:43:26.900Z,35.84
2024-04-30T10:44:26.906Z,35.98
2024-04-30T10:45:26.851Z,36.00
2024-04-30T10:46:26.866Z,36.14
2024-04-30T10:47:26.901Z,36.35
2024-04-30T10:48:26.884Z,36.71
2024-04-30T10:49:26.841Z,36.96
2024-04-30T10:50:27.212Z,37.17
2024-04-30T10:51:26.892Z,37.26
2024-04-30T10:52:26.848Z,37.30
2024-04-30T10:53:26.800Z,37.27
2024-04-30T10:54:26.812Z,37.54
2024-04-30T10:55:26.803Z,37.54
2024-04-30T10:56:26.782Z,37.41
2024-04-30T10:57:26.777Z,37.30
2024-04-30T10:58:26.783Z,36.94
2024-04-30T10:59:26.889Z,36.98
2024-04-30T11:00:26.833Z,37.25
2024-04-30T11:01:26.911Z,37.44
2024-04-30T11:02:26.741Z,37.76
2024-04-30T11:03:26.811Z,37.61
2024-04-30T11:04:27.912Z,37.74
2024-04-30T11:05:26.893Z,38.04
2024-04-30T11:06:26.737Z,37.70
2024-04-30T11:07:26.716Z,37.13
2024-04-30T11:08:26.750Z,36.81
2024-04-30T11:09:28.662Z,37.16
2024-04-30T11:10:26.702Z,37.37
2024-04-30T11:11:26.693Z,37.82
2024-04-30T11:12:26.674Z,38.04
2024-04-30T11:13:26.764Z,38.26
2024-04-30T11:14:26.666Z,37.72
2024-04-30T11:15:26.653Z,37.27
2024-04-30T11:16:26.687Z,37.58
2024-04-30T11:17:27.049Z,37.79
2024-04-30T11:18:26.777Z,37.98
2024-04-30T11:19:26.646Z,38.23
2024-04-30T11:20:26.675Z,38.23
2024-04-30T11:21:26.611Z,38.25
2024-04-30T11:22:26.617Z,38.51
2024-04-30T11:23:26.638Z,38.92
2024-04-30T11:24:26.608Z,39.16
2024-04-30T11:25:26.612Z,39.49
2024-04-30T11:26:26.654Z,39.92
2024-04-30T11:27:26.576Z,39.96
2024-04-30T11:28:26.620Z,40.13
2024-04-30T11:30:26.554Z,40.40
2024-04-30T11:31:26.584Z,40.70
2024-04-30T11:32:26.618Z,40.65
2024-04-30T11:33:29.846Z,40.82
2024-04-30T11:34:26.616Z,41.06
2024-04-30T11:35:26.539Z,40.77
2024-04-30T11:36:26.529Z,40.97
2024-04-30T11:37:26.620Z,40.99
2024-04-30T11:38:26.609Z,40.96
2024-04-30T11:39:26.536Z,41.11
2024-04-30T11:40:26.538Z,40.96
2024-04-30T11:41:26.490Z,40.67
2024-04-30T11:42:31.273Z,40.58
2024-04-30T11:43:27.734Z,40.82
2024-04-30T11:44:26.470Z,40.65
2024-04-30T11:45:26.460Z,40.75
2024-04-30T11:46:26.502Z,40.80
2024-04-30T11:47:26.537Z,40.58
2024-04-30T11:48:29.599Z,40.18
2024-04-30T11:49:26.566Z,39.91
2024-04-30T11:50:26.431Z,40.01
2024-04-30T11:51:26.420Z,40.01
2024-04-30T11:52:26.466Z,39.94
2024-04-30T11:53:26.543Z,40.07
2024-04-30T11:54:26.434Z,39.98
2024-04-30T11:55:26.440Z,40.11
2024-04-30T11:56:26.511Z,39.89
2024-04-30T11:57:26.428Z,40.05
2024-04-30T11:58:26.461Z,39.54
2024-04-30T11:59:26.409Z,39.58
2024-04-30T12:00:26.381Z,39.55
2024-04-30T12:01:26.545Z,39.55
2024-04-30T12:02:26.398Z,39.55
2024-04-30T12:03:26.343Z,39.70
2024-04-30T12:04:26.648Z,39.76
2024-04-30T12:05:26.356Z,39.96
2024-04-30T12:06:26.399Z,40.08
2024-04-30T12:07:26.358Z,40.35
2024-04-30T12:08:26.323Z,40.35
2024-04-30T12:09:26.384Z,40.13
2024-04-30T12:10:26.339Z,40.26
2024-04-30T12:11:26.397Z,40.20
2024-04-30T12:12:26.304Z,40.29
2024-04-30T12:13:26.381Z,40.30
2024-04-30T12:14:26.304Z,40.33
2024-04-30T12:15:26.317Z,40.35
2024-04-30T12:16:26.385Z,40.16
2024-04-30T12:17:26.444Z,39.89
2024-04-30T12:18:26.309Z,39.68
2024-04-30T12:19:26.346Z,39.61
2024-04-30T12:20:26.283Z,39.61
2024-04-30T12:21:26.243Z,39.21
2024-04-30T12:22:26.319Z,39.21
2024-04-30T12:23:26.247Z,39.14
2024-04-30T12:24:26.279Z,39.14
2024-04-30T12:25:26.270Z,38.98
2024-04-30T12:26:26.246Z,39.01
2024-04-30T12:27:26.237Z,39.05
2024-04-30T12:28:26.243Z,38.86
2024-04-30T12:29:26.223Z,38.37
2024-04-30T12:30:26.192Z,38.10
2024-04-30T12:31:26.316Z,37.70
2024-04-30T12:32:26.230Z,37.51
2024-04-30T12:33:26.225Z,37.51
2024-04-30T12:34:26.225Z,37.61
2024-04-30T12:35:26.237Z,37.49
2024-04-30T12:36:26.262Z,37.67
2024-04-30T12:37:26.224Z,37.69
2024-04-30T12:38:26.155Z,37.65
2024-04-30T12:39:26.155Z,37.58
2024-04-30T12:40:26.169Z,37.44
2024-04-30T12:41:26.130Z,37.41
2024-04-30T12:42:26.204Z,37.34
2024-04-30T12:43:26.305Z,37.23
2024-04-30T12:44:26.139Z,37.25
2024-04-30T12:45:26.123Z,37.17
2024-04-30T12:46:26.103Z,37.05
2024-04-30T12:47:26.226Z,36.82
2024-04-30T12:48:26.106Z,36.52
2024-04-30T12:49:26.146Z,36.48
2024-04-30T12:50:26.055Z,36.40
2024-04-30T12:51:26.069Z,36.44
2024-04-30T12:52:26.096Z,36.42
2024-04-30T12:53:26.063Z,36.30